sensor_id;sensor_type;location;lat;lon;timestamp;pressure;altitude;pressure_sealevel;temperature;humidity
77702;BME280;66868;42.708;23.404;2023-06-04T00:01:07;95320.94;;;18.35;83.38
77702;BME280;66868;42.708;23.404;2023-06-04T00:03:33;95312.66;;;18.31;83.55
77702;BME280;66868;42.708;23.404;2023-06-04T00:05:59;95303.59;;;18.18;83.65
77702;BME280;66868;42.708;23.404;2023-06-04T00:08:24;95323.75;;;18.32;83.46
77702;BME280;66868;42.708;23.404;2023-06-04T00:10:50;95323.75;;;18.32;83.51
77702;BME280;66868;42.708;23.404;2023-06-04T00:13:15;95300.50;;;18.14;83.50
77702;BME280;66868;42.708;23.404;2023-06-04T00:15:41;95321.03;;;18.24;83.32
77702;BME280;66868;42.708;23.404;2023-06-04T00:18:07;95316.19;;;18.21;83.06
77702;BME280;66868;42.708;23.404;2023-06-04T00:20:32;95315.63;;;18.27;83.01
77702;BME280;66868;42.708;23.404;2023-06-04T00:22:57;95321.72;;;18.26;83.15
77702;BME280;66868;42.708;23.404;2023-06-04T00:25:23;95319.16;;;18.26;83.01
77702;BME280;66868;42.708;23.404;2023-06-04T00:27:48;95314.03;;;18.26;83.21
77702;BME280;66868;42.708;23.404;2023-06-04T00:30:14;95318.50;;;18.33;83.09
77702;BME280;66868;42.708;23.404;2023-06-04T00:32:40;95321.06;;;18.33;82.79
77702;BME280;66868;42.708;23.404;2023-06-04T00:35:06;95309.31;;;18.31;82.81
77702;BME280;66868;42.708;23.404;2023-06-04T00:37:31;95313.47;;;18.32;82.99
77702;BME280;66868;42.708;23.404;2023-06-04T00:39:57;95309.72;;;18.36;83.11
77702;BME280;66868;42.708;23.404;2023-06-04T00:42:22;95307.97;;;18.36;82.87
77702;BME280;66868;42.708;23.404;2023-06-04T00:44:48;95311.34;;;18.37;82.54
77702;BME280;66868;42.708;23.404;2023-06-04T00:47:15;95307.31;;;18.34;82.59
77702;BME280;66868;42.708;23.404;2023-06-04T00:49:41;95276.63;;;18.14;82.92
77702;BME280;66868;42.708;23.404;2023-06-04T00:52:09;95286.63;;;18.17;82.76
77702;BME280;66868;42.708;23.404;2023-06-04T00:54:38;95313.06;;;18.27;82.76
77702;BME280;66868;42.708;23.404;2023-06-04T00:57:04;95312.41;;;18.25;82.77
77702;BME280;66868;42.708;23.404;2023-06-04T00:59:31;95314.03;;;18.26;82.76
77702;BME280;66868;42.708;23.404;2023-06-04T01:02:10;95288.50;;;18.15;82.88
77702;BME280;66868;42.708;23.404;2023-06-04T01:04:44;95317.53;;;18.25;83.06
77702;BME280;66868;42.708;23.404;2023-06-04T01:07:11;95318.34;;;18.25;82.75
77702;BME280;66868;42.708;23.404;2023-06-04T01:09:38;95305.78;;;18.13;82.75
77702;BME280;66868;42.708;23.404;2023-06-04T01:12:05;95298.22;;;18.11;82.88
77702;BME280;66868;42.708;23.404;2023-06-04T01:14:30;95310.13;;;18.22;83.13
77702;BME280;66868;42.708;23.404;2023-06-04T01:17:02;95308.50;;;18.21;83.64
77702;BME280;66868;42.708;23.404;2023-06-04T01:25:09;95317.09;;;18.20;84.05
77702;BME280;66868;42.708;23.404;2023-06-04T01:27:37;95308.59;;;18.19;83.77
77702;BME280;66868;42.708;23.404;2023-06-04T01:30:06;95316.28;;;18.09;83.96
77702;BME280;66868;42.708;23.404;2023-06-04T01:32:33;95302.09;;;18.05;84.11
77702;BME280;66868;42.708;23.404;2023-06-04T01:34:59;95323.94;;;18.09;84.14
77702;BME280;66868;42.708;23.404;2023-06-04T01:37:25;95322.31;;;18.08;83.93
77702;BME280;66868;42.708;23.404;2023-06-04T01:39:51;95307.72;;;17.99;84.06
77702;BME280;66868;42.708;23.404;2023-06-04T01:42:17;95322.91;;;18.12;83.96
77702;BME280;66868;42.708;23.404;2023-06-04T01:44:42;95331.63;;;18.09;84.37
77702;BME280;66868;42.708;23.404;2023-06-04T01:47:07;95334.47;;;18.06;84.52
77702;BME280;66868;42.708;23.404;2023-06-04T01:49:33;95330.97;;;18.07;84.57
77702;BME280;66868;42.708;23.404;2023-06-04T01:51:58;95277.19;;;17.77;84.73
77702;BME280;66868;42.708;23.404;2023-06-04T01:54:24;95332.56;;;18.08;84.76
77702;BME280;66868;42.708;23.404;2023-06-04T01:56:49;95332.97;;;18.04;84.92
77702;BME280;66868;42.708;23.404;2023-06-04T01:59:14;95341.22;;;18.07;85.20
77702;BME280;66868;42.708;23.404;2023-06-04T02:01:41;95337.69;;;18.08;84.98
77702;BME280;66868;42.708;23.404;2023-06-04T02:04:07;95346.09;;;18.10;85.33
77702;BME280;66868;42.708;23.404;2023-06-04T02:06:32;95327.72;;;18.05;85.38
77702;BME280;66868;42.708;23.404;2023-06-04T02:08:57;95336.38;;;18.14;85.43
77702;BME280;66868;42.708;23.404;2023-06-04T02:11:23;95337.72;;;18.18;85.48
77702;BME280;66868;42.708;23.404;2023-06-04T02:13:48;95336.13;;;18.17;85.04
77702;BME280;66868;42.708;23.404;2023-06-04T02:16:14;95345.81;;;18.14;85.10
77702;BME280;66868;42.708;23.404;2023-06-04T02:18:39;95334.72;;;18.03;85.06
77702;BME280;66868;42.708;23.404;2023-06-04T02:21:05;95327.28;;;18.00;85.08
77702;BME280;66868;42.708;23.404;2023-06-04T02:23:31;95298.81;;;17.84;85.22
77702;BME280;66868;42.708;23.404;2023-06-04T02:25:56;95351.63;;;18.16;84.96
77702;BME280;66868;42.708;23.404;2023-06-04T02:28:21;95355.81;;;18.17;85.23
77702;BME280;66868;42.708;23.404;2023-06-04T02:30:47;95357.69;;;18.15;85.19
77702;BME280;66868;42.708;23.404;2023-06-04T02:33:13;95350.13;;;18.13;85.62
77702;BME280;66868;42.708;23.404;2023-06-04T02:35:38;95361.06;;;18.15;85.51
77702;BME280;66868;42.708;23.404;2023-06-04T02:38:04;95345.78;;;18.04;85.79
77702;BME280;66868;42.708;23.404;2023-06-04T02:40:30;95347.94;;;18.08;85.91
77702;BME280;66868;42.708;23.404;2023-06-04T02:42:56;95347.94;;;18.08;86.11
77702;BME280;66868;42.708;23.404;2023-06-04T02:45:24;95359.81;;;18.09;86.46
77702;BME280;66868;42.708;23.404;2023-06-04T02:47:50;95360.53;;;18.12;86.68
77702;BME280;66868;42.708;23.404;2023-06-04T02:50:15;95367.94;;;18.15;86.64
77702;BME280;66868;42.708;23.404;2023-06-04T02:52:41;95365.25;;;18.16;86.55
77702;BME280;66868;42.708;23.404;2023-06-04T02:55:07;95367.66;;;18.18;86.32
77702;BME280;66868;42.708;23.404;2023-06-04T02:57:34;95378.19;;;18.15;86.24
77702;BME280;66868;42.708;23.404;2023-06-04T03:00:00;95374.69;;;18.16;85.95
77702;BME280;66868;42.708;23.404;2023-06-04T03:02:26;95379.81;;;18.16;86.06
77702;BME280;66868;42.708;23.404;2023-06-04T03:04:53;95378.75;;;18.18;85.98
77702;BME280;66868;42.708;23.404;2023-06-04T03:07:20;95375.25;;;18.19;85.81
77702;BME280;66868;42.708;23.404;2023-06-04T03:09:50;95387.25;;;18.19;85.90
77702;BME280;66868;42.708;23.404;2023-06-04T03:12:16;95387.94;;;18.21;85.95
77702;BME280;66868;42.708;23.404;2023-06-04T03:14:41;95381.19;;;18.20;86.20
77702;BME280;66868;42.708;23.404;2023-06-04T03:17:06;95379.31;;;18.22;86.11
77702;BME280;66868;42.708;23.404;2023-06-04T03:19:40;95385.09;;;18.24;86.19
77702;BME280;66868;42.708;23.404;2023-06-04T03:22:07;95377.25;;;18.16;86.22
77702;BME280;66868;42.708;23.404;2023-06-04T03:24:37;95386.31;;;18.20;86.24
77702;BME280;66868;42.708;23.404;2023-06-04T03:27:04;95393.59;;;18.24;86.11
77702;BME280;66868;42.708;23.404;2023-06-04T03:29:30;95392.69;;;18.25;85.82
77702;BME280;66868;42.708;23.404;2023-06-04T03:31:56;95376.56;;;18.14;85.77
77702;BME280;66868;42.708;23.404;2023-06-04T03:34:21;95382.13;;;18.19;85.95
77702;BME280;66868;42.708;23.404;2023-06-04T03:36:51;95406.31;;;18.26;86.23
77702;BME280;66868;42.708;23.404;2023-06-04T03:39:16;95402.13;;;18.25;86.15
77702;BME280;66868;42.708;23.404;2023-06-04T03:41:42;95404.56;;;18.26;85.80
77702;BME280;66868;42.708;23.404;2023-06-04T03:44:08;95403.75;;;18.26;85.92
77702;BME280;66868;42.708;23.404;2023-06-04T03:46:33;95405.22;;;18.28;85.91
77702;BME280;66868;42.708;23.404;2023-06-04T03:48:59;95402.78;;;18.27;86.18
77702;BME280;66868;42.708;23.404;2023-06-04T03:51:24;95404.56;;;18.26;86.44
77702;BME280;66868;42.708;23.404;2023-06-04T03:53:50;95411.97;;;18.29;86.38
77702;BME280;66868;42.708;23.404;2023-06-04T03:56:15;95356.56;;;17.98;86.29
77702;BME280;66868;42.708;23.404;2023-06-04T03:58:41;95409.28;;;18.31;86.59
77702;BME280;66868;42.708;23.404;2023-06-04T04:01:06;95391.16;;;18.23;86.10
77702;BME280;66868;42.708;23.404;2023-06-04T04:03:33;95412.25;;;18.36;86.22
77702;BME280;66868;42.708;23.404;2023-06-04T04:06:00;95371.97;;;18.07;86.13
77702;BME280;66868;42.708;23.404;2023-06-04T04:08:25;95417.97;;;18.39;86.08
77702;BME280;66868;42.708;23.404;2023-06-04T04:10:55;95408.75;;;18.37;85.98
77702;BME280;66868;42.708;23.404;2023-06-04T04:13:20;95425.25;;;18.44;85.59
77702;BME280;66868;42.708;23.404;2023-06-04T04:15:46;95405.53;;;18.35;85.68
77702;BME280;66868;42.708;23.404;2023-06-04T04:18:11;95422.44;;;18.47;85.26
77702;BME280;66868;42.708;23.404;2023-06-04T04:20:36;95328.34;;;17.88;85.07
77702;BME280;66868;42.708;23.404;2023-06-04T04:23:02;95424.50;;;18.53;85.01
77702;BME280;66868;42.708;23.404;2023-06-04T04:25:27;95430.31;;;18.55;84.73
77702;BME280;66868;42.708;23.404;2023-06-04T04:27:53;95420.28;;;18.52;84.33
77702;BME280;66868;42.708;23.404;2023-06-04T04:30:21;95435.03;;;18.60;84.08
77702;BME280;66868;42.708;23.404;2023-06-04T04:32:47;95433.44;;;18.68;83.60
77702;BME280;66868;42.708;23.404;2023-06-04T04:35:15;95428.31;;;18.68;83.45
77702;BME280;66868;42.708;23.404;2023-06-04T04:37:44;95434.84;;;18.72;83.03
77702;BME280;66868;42.708;23.404;2023-06-04T04:40:10;95432.94;;;18.74;82.98
77702;BME280;66868;42.708;23.404;2023-06-04T04:42:37;95428.63;;;18.75;82.65
77702;BME280;66868;42.708;23.404;2023-06-04T04:45:03;95430.50;;;18.82;82.08
77702;BME280;66868;42.708;23.404;2023-06-04T04:47:28;95430.94;;;18.87;81.60
77702;BME280;66868;42.708;23.404;2023-06-04T04:49:54;95424.84;;;18.88;81.73
77702;BME280;66868;42.708;23.404;2023-06-04T04:52:19;95434.84;;;18.91;81.37
77702;BME280;66868;42.708;23.404;2023-06-04T04:54:44;95436.91;;;18.97;80.89
77702;BME280;66868;42.708;23.404;2023-06-04T04:57:10;95439.06;;;19.02;80.66
77702;BME280;66868;42.708;23.404;2023-06-04T04:59:35;95443.13;;;19.05;80.37
77702;BME280;66868;42.708;23.404;2023-06-04T05:02:01;95443.69;;;19.08;80.28
77702;BME280;66868;42.708;23.404;2023-06-04T05:04:26;95451.91;;;19.12;79.77
77702;BME280;66868;42.708;23.404;2023-06-04T05:06:51;95418.41;;;19.04;79.64
77702;BME280;66868;42.708;23.404;2023-06-04T05:09:17;95440.84;;;19.21;79.69
77702;BME280;66868;42.708;23.404;2023-06-04T05:11:42;95448.13;;;19.25;79.54
77702;BME280;66868;42.708;23.404;2023-06-04T05:14:07;95443.69;;;19.27;79.33
77702;BME280;66868;42.708;23.404;2023-06-04T05:16:33;95434.91;;;19.20;78.81
77702;BME280;66868;42.708;23.404;2023-06-04T05:19:01;95447.06;;;19.37;78.40
77702;BME280;66868;42.708;23.404;2023-06-04T05:21:27;95447.88;;;19.38;77.93
77702;BME280;66868;42.708;23.404;2023-06-04T05:23:54;95439.75;;;19.33;78.07
77702;BME280;66868;42.708;23.404;2023-06-04T05:26:20;95452.78;;;19.51;77.79
77702;BME280;66868;42.708;23.404;2023-06-04T05:28:53;95436.41;;;19.42;77.69
77702;BME280;66868;42.708;23.404;2023-06-04T05:31:19;95450.22;;;19.60;77.31
77702;BME280;66868;42.708;23.404;2023-06-04T05:33:44;95460.75;;;19.67;76.61
77702;BME280;66868;42.708;23.404;2023-06-04T05:36:10;95450.75;;;19.64;76.13
77702;BME280;66868;42.708;23.404;2023-06-04T05:38:35;95460.88;;;19.65;76.31
77702;BME280;66868;42.708;23.404;2023-06-04T05:41:01;95408.16;;;19.32;76.24
77702;BME280;66868;42.708;23.404;2023-06-04T05:43:27;95452.78;;;19.60;76.51
77702;BME280;66868;42.708;23.404;2023-06-04T05:45:52;95454.13;;;19.64;76.32
77702;BME280;66868;42.708;23.404;2023-06-04T05:48:18;95441.69;;;19.60;76.10
77702;BME280;66868;42.708;23.404;2023-06-04T05:50:43;95448.44;;;19.70;76.01
77702;BME280;66868;42.708;23.404;2023-06-04T05:53:09;95441.53;;;19.61;76.16
77702;BME280;66868;42.708;23.404;2023-06-04T05:55:34;95475.22;;;19.77;76.04
77702;BME280;66868;42.708;23.404;2023-06-04T05:58:00;95482.78;;;19.79;75.81
77702;BME280;66868;42.708;23.404;2023-06-04T06:00:25;95476.03;;;19.78;75.02
77702;BME280;66868;42.708;23.404;2023-06-04T06:02:51;95482.75;;;19.89;75.04
77702;BME280;66868;42.708;23.404;2023-06-04T06:05:18;95490.34;;;19.90;74.98
77702;BME280;66868;42.708;23.404;2023-06-04T06:07:44;95499.25;;;19.96;75.00
77702;BME280;66868;42.708;23.404;2023-06-04T06:10:10;95499.66;;;20.01;74.64
77702;BME280;66868;42.708;23.404;2023-06-04T06:12:35;95504.28;;;20.07;74.54
77702;BME280;66868;42.708;23.404;2023-06-04T06:15:01;95483.56;;;19.99;74.10
77702;BME280;66868;42.708;23.404;2023-06-04T06:17:27;95479.09;;;20.01;74.00
77702;BME280;66868;42.708;23.404;2023-06-04T06:19:52;95495.44;;;20.19;73.58
77702;BME280;66868;42.708;23.404;2023-06-04T06:22:18;95475.00;;;20.17;73.08
77702;BME280;66868;42.708;23.404;2023-06-04T06:24:43;95474.84;;;20.28;72.66
77702;BME280;66868;42.708;23.404;2023-06-04T06:27:10;95468.38;;;20.24;72.32
77702;BME280;66868;42.708;23.404;2023-06-04T06:29:36;95487.53;;;20.49;72.26
77702;BME280;66868;42.708;23.404;2023-06-04T06:32:02;95496.84;;;20.60;71.86
77702;BME280;66868;42.708;23.404;2023-06-04T06:34:28;95499.25;;;20.71;71.79
77702;BME280;66868;42.708;23.404;2023-06-04T06:36:53;95494.19;;;20.79;71.53
77702;BME280;66868;42.708;23.404;2023-06-04T06:39:19;95499.56;;;20.86;71.20
77702;BME280;66868;42.708;23.404;2023-06-04T06:41:45;95494.16;;;20.89;71.27
77702;BME280;66868;42.708;23.404;2023-06-04T06:44:10;95463.34;;;20.69;71.70
77702;BME280;66868;42.708;23.404;2023-06-04T06:46:36;95502.34;;;21.02;71.06
77702;BME280;66868;42.708;23.404;2023-06-04T06:49:01;95499.84;;;21.10;71.18
77702;BME280;66868;42.708;23.404;2023-06-04T06:51:27;95471.34;;;20.94;70.96
77702;BME280;66868;42.708;23.404;2023-06-04T06:53:52;95509.19;;;21.21;70.85
77702;BME280;66868;42.708;23.404;2023-06-04T06:56:17;95506.97;;;21.26;70.82
77702;BME280;66868;42.708;23.404;2023-06-04T06:58:44;95496.50;;;21.27;70.99
77702;BME280;66868;42.708;23.404;2023-06-04T07:01:09;95477.47;;;21.20;70.51
77702;BME280;66868;42.708;23.404;2023-06-04T07:03:35;95507.00;;;21.43;70.49
77702;BME280;66868;42.708;23.404;2023-06-04T07:06:00;95495.50;;;21.38;70.14
77702;BME280;66868;42.708;23.404;2023-06-04T07:08:26;95509.00;;;21.49;70.09
77702;BME280;66868;42.708;23.404;2023-06-04T07:10:51;95507.00;;;21.61;70.23
77702;BME280;66868;42.708;23.404;2023-06-04T07:13:16;95496.81;;;21.59;68.91
77702;BME280;66868;42.708;23.404;2023-06-04T07:15:42;95512.81;;;21.81;69.01
77702;BME280;66868;42.708;23.404;2023-06-04T07:18:07;95514.00;;;21.86;68.72
77702;BME280;66868;42.708;23.404;2023-06-04T07:20:33;95517.09;;;21.90;68.37
77702;BME280;66868;42.708;23.404;2023-06-04T07:22:58;95529.16;;;22.07;67.45
77702;BME280;66868;42.708;23.404;2023-06-04T07:25:24;95536.09;;;22.07;67.07
77702;BME280;66868;42.708;23.404;2023-06-04T07:27:51;95531.75;;;22.07;66.82
77702;BME280;66868;42.708;23.404;2023-06-04T07:30:16;95528.00;;;22.19;66.83
77702;BME280;66868;42.708;23.404;2023-06-04T07:32:46;95540.63;;;22.30;66.16
77702;BME280;66868;42.708;23.404;2023-06-04T07:35:12;95514.81;;;22.30;65.65
77702;BME280;66868;42.708;23.404;2023-06-04T07:37:37;95520.34;;;22.35;65.90
77702;BME280;66868;42.708;23.404;2023-06-04T07:40:03;95520.38;;;22.43;66.33
77702;BME280;66868;42.708;23.404;2023-06-04T07:42:28;95547.63;;;22.64;66.73
77702;BME280;66868;42.708;23.404;2023-06-04T07:44:54;95545.41;;;22.69;65.18
77702;BME280;66868;42.708;23.404;2023-06-04T07:47:19;95545.72;;;22.66;64.88
77702;BME280;66868;42.708;23.404;2023-06-04T07:49:45;95549.75;;;22.68;64.73
77702;BME280;66868;42.708;23.404;2023-06-04T07:52:11;95557.28;;;22.79;64.45
77702;BME280;66868;42.708;23.404;2023-06-04T07:54:37;95549.84;;;22.84;64.08
77702;BME280;66868;42.708;23.404;2023-06-04T07:57:02;95554.56;;;22.89;64.32
77702;BME280;66868;42.708;23.404;2023-06-04T07:59:28;95560.59;;;22.98;64.75
77702;BME280;66868;42.708;23.404;2023-06-04T08:01:54;95552.38;;;23.02;64.21
77702;BME280;66868;42.708;23.404;2023-06-04T08:04:20;95554.31;;;23.08;64.45
77702;BME280;66868;42.708;23.404;2023-06-04T08:06:45;95561.59;;;23.13;63.79
77702;BME280;66868;42.708;23.404;2023-06-04T08:09:11;95562.75;;;23.18;64.34
77702;BME280;66868;42.708;23.404;2023-06-04T08:11:39;95553.72;;;23.22;64.79
77702;BME280;66868;42.708;23.404;2023-06-04T08:14:04;95561.22;;;23.42;64.30
77702;BME280;66868;42.708;23.404;2023-06-04T08:16:31;95548.31;;;23.42;63.68
77702;BME280;66868;42.708;23.404;2023-06-04T08:18:57;95564.88;;;23.57;62.70
77702;BME280;66868;42.708;23.404;2023-06-04T08:21:26;95543.22;;;23.58;62.72
77702;BME280;66868;42.708;23.404;2023-06-04T08:23:52;95549.03;;;23.68;63.26
77702;BME280;66868;42.708;23.404;2023-06-04T08:26:18;95566.69;;;23.81;63.17
77702;BME280;66868;42.708;23.404;2023-06-04T08:28:44;95569.28;;;23.81;62.40
77702;BME280;66868;42.708;23.404;2023-06-04T08:31:10;95571.38;;;23.85;62.32
77702;BME280;66868;42.708;23.404;2023-06-04T08:33:35;95570.41;;;23.86;60.42
77702;BME280;66868;42.708;23.404;2023-06-04T08:36:01;95555.53;;;23.80;60.71
77702;BME280;66868;42.708;23.404;2023-06-04T08:38:26;95576.56;;;24.01;60.50
77702;BME280;66868;42.708;23.404;2023-06-04T08:40:52;95571.41;;;24.01;59.88
77702;BME280;66868;42.708;23.404;2023-06-04T08:43:19;95566.22;;;24.01;59.00
77702;BME280;66868;42.708;23.404;2023-06-04T08:45:49;95574.47;;;23.97;58.73
77702;BME280;66868;42.708;23.404;2023-06-04T08:48:18;95569.28;;;24.05;59.37
77702;BME280;66868;42.708;23.404;2023-06-04T08:50:47;95587.44;;;24.13;59.33
77702;BME280;66868;42.708;23.404;2023-06-04T08:53:15;95586.78;;;24.19;59.07
77702;BME280;66868;42.708;23.404;2023-06-04T08:55:40;95554.25;;;24.00;58.44
77702;BME280;66868;42.708;23.404;2023-06-04T08:58:07;95589.72;;;24.24;58.45
77702;BME280;66868;42.708;23.404;2023-06-04T09:00:35;95572.25;;;24.26;58.18
77702;BME280;66868;42.708;23.404;2023-06-04T09:03:02;95587.13;;;24.40;58.02
77702;BME280;66868;42.708;23.404;2023-06-04T09:05:31;95558.66;;;24.24;57.63
77702;BME280;66868;42.708;23.404;2023-06-04T09:08:00;95601.50;;;24.43;57.29
77702;BME280;66868;42.708;23.404;2023-06-04T09:10:26;95590.84;;;24.46;57.78
77702;BME280;66868;42.708;23.404;2023-06-04T09:12:56;95591.16;;;24.51;57.66
77702;BME280;66868;42.708;23.404;2023-06-04T09:15:22;95596.19;;;24.44;58.03
77702;BME280;66868;42.708;23.404;2023-06-04T09:17:48;95586.78;;;24.43;57.30
77702;BME280;66868;42.708;23.404;2023-06-04T09:20:24;95590.22;;;24.36;57.80
77702;BME280;66868;42.708;23.404;2023-06-04T09:22:49;95602.81;;;24.47;57.95
77702;BME280;66868;42.708;23.404;2023-06-04T09:25:26;95588.56;;;24.51;57.16
77702;BME280;66868;42.708;23.404;2023-06-04T09:27:54;95591.47;;;24.48;57.10
77702;BME280;66868;42.708;23.404;2023-06-04T09:30:21;95591.16;;;24.51;56.69
77702;BME280;66868;42.708;23.404;2023-06-04T09:32:47;95578.19;;;24.51;58.09
77702;BME280;66868;42.708;23.404;2023-06-04T09:35:14;95585.66;;;24.62;57.96
77702;BME280;66868;42.708;23.404;2023-06-04T09:37:51;95588.56;;;24.67;58.68
77702;BME280;66868;42.708;23.404;2023-06-04T09:40:17;95590.19;;;24.68;58.15
77702;BME280;66868;42.708;23.404;2023-06-04T09:42:44;95568.66;;;24.68;57.96
77702;BME280;66868;42.708;23.404;2023-06-04T09:45:10;95578.50;;;24.80;56.33
77702;BME280;66868;42.708;23.404;2023-06-04T09:47:43;95554.72;;;24.69;56.84
77702;BME280;66868;42.708;23.404;2023-06-04T09:50:12;95589.50;;;24.90;55.90
77702;BME280;66868;42.708;23.404;2023-06-04T09:52:38;95602.41;;;25.06;55.05
77702;BME280;66868;42.708;23.404;2023-06-04T09:55:15;95587.22;;;24.95;55.33
77702;BME280;66868;42.708;23.404;2023-06-04T09:57:46;95594.31;;;25.10;55.36
77702;BME280;66868;42.708;23.404;2023-06-04T10:00:23;95547.06;;;24.83;56.39
77702;BME280;66868;42.708;23.404;2023-06-04T10:02:56;95575.53;;;25.07;54.68
77702;BME280;66868;42.708;23.404;2023-06-04T10:05:24;95591.72;;;25.10;54.38
77702;BME280;66868;42.708;23.404;2023-06-04T10:07:51;95596.72;;;25.11;54.47
77702;BME280;66868;42.708;23.404;2023-06-04T10:10:20;95577.16;;;25.08;54.82
77702;BME280;66868;42.708;23.404;2023-06-04T10:12:50;95589.41;;;25.23;54.70
77702;BME280;66868;42.708;23.404;2023-06-04T10:15:20;95582.41;;;25.31;55.35
77702;BME280;66868;42.708;23.404;2023-06-04T10:17:47;95574.63;;;25.31;54.27
77702;BME280;66868;42.708;23.404;2023-06-04T10:20:13;95540.50;;;25.20;54.75
77702;BME280;66868;42.708;23.404;2023-06-04T10:22:40;95569.41;;;25.39;54.71
77702;BME280;66868;42.708;23.404;2023-06-04T10:25:06;95551.75;;;25.43;53.66
77702;BME280;66868;42.708;23.404;2023-06-04T10:27:32;95562.00;;;25.67;54.01
77702;BME280;66868;42.708;23.404;2023-06-04T10:30:00;95580.38;;;25.88;53.73
77702;BME280;66868;42.708;23.404;2023-06-04T10:32:30;95585.50;;;25.97;52.94
77702;BME280;66868;42.708;23.404;2023-06-04T10:34:56;95570.78;;;25.89;51.65
77702;BME280;66868;42.708;23.404;2023-06-04T10:37:26;95575.75;;;25.99;52.86
77702;BME280;66868;42.708;23.404;2023-06-04T10:39:56;95589.25;;;26.17;51.73
77702;BME280;66868;42.708;23.404;2023-06-04T10:42:25;95565.69;;;25.95;51.91
77702;BME280;66868;42.708;23.404;2023-06-04T10:44:53;95589.78;;;26.12;51.62
77702;BME280;66868;42.708;23.404;2023-06-04T10:47:27;95591.50;;;26.20;52.23
77702;BME280;66868;42.708;23.404;2023-06-04T10:50:09;95586.28;;;26.20;52.53
77702;BME280;66868;42.708;23.404;2023-06-04T10:52:50;95582.97;;;26.34;52.50
77702;BME280;66868;42.708;23.404;2023-06-04T10:55:16;95577.69;;;26.42;51.95
77702;BME280;66868;42.708;23.404;2023-06-04T10:58:00;95570.66;;;26.51;52.31
77702;BME280;66868;42.708;23.404;2023-06-04T11:00:39;95583.66;;;26.65;51.15
77702;BME280;66868;42.708;23.404;2023-06-04T11:03:06;95576.97;;;26.71;50.09
77702;BME280;66868;42.708;23.404;2023-06-04T11:05:40;95588.72;;;26.81;49.99
77702;BME280;66868;42.708;23.404;2023-06-04T11:08:06;95585.47;;;26.79;49.60
77702;BME280;66868;42.708;23.404;2023-06-04T11:10:37;95590.56;;;26.73;50.15
77702;BME280;66868;42.708;23.404;2023-06-04T11:13:03;95588.78;;;26.73;49.99
77702;BME280;66868;42.708;23.404;2023-06-04T11:15:42;95580.09;;;26.81;50.24
77702;BME280;66868;42.708;23.404;2023-06-04T11:18:13;95569.59;;;26.74;49.81
77702;BME280;66868;42.708;23.404;2023-06-04T11:20:39;95589.63;;;26.89;49.32
77702;BME280;66868;42.708;23.404;2023-06-04T11:23:04;95584.72;;;26.94;50.24
77702;BME280;66868;42.708;23.404;2023-06-04T11:25:31;95582.13;;;26.94;49.97
77702;BME280;66868;42.708;23.404;2023-06-04T11:27:58;95568.38;;;26.85;49.16
77702;BME280;66868;42.708;23.404;2023-06-04T11:30:25;95575.75;;;26.96;49.18
77702;BME280;66868;42.708;23.404;2023-06-04T11:32:59;95560.06;;;26.90;49.50
77702;BME280;66868;42.708;23.404;2023-06-04T11:35:25;95591.16;;;27.12;49.41
77702;BME280;66868;42.708;23.404;2023-06-04T11:37:54;95576.00;;;27.16;49.91
77702;BME280;66868;42.708;23.404;2023-06-04T11:40:20;95586.50;;;27.37;50.57
77702;BME280;66868;42.708;23.404;2023-06-04T11:42:47;95580.94;;;27.55;50.56
77702;BME280;66868;42.708;23.404;2023-06-04T11:45:14;95580.00;;;27.62;48.59
77702;BME280;66868;42.708;23.404;2023-06-04T11:47:54;95568.63;;;27.63;48.45
77702;BME280;66868;42.708;23.404;2023-06-04T11:50:21;95583.41;;;27.78;48.33
77702;BME280;66868;42.708;23.404;2023-06-04T11:52:47;95572.78;;;27.79;48.33
77702;BME280;66868;42.708;23.404;2023-06-04T11:55:14;95590.47;;;28.05;48.75
77702;BME280;66868;42.708;23.404;2023-06-04T11:57:40;95573.88;;;28.06;48.56
77702;BME280;66868;42.708;23.404;2023-06-04T12:00:09;95563.59;;;28.19;47.96
77702;BME280;66868;42.708;23.404;2023-06-04T12:02:39;95555.25;;;28.30;47.73
77702;BME280;66868;42.708;23.404;2023-06-04T12:05:14;95561.06;;;28.53;46.65
77702;BME280;66868;42.708;23.404;2023-06-04T12:07:40;95588.63;;;28.90;46.43
77702;BME280;66868;42.708;23.404;2023-06-04T12:10:07;95593.88;;;28.97;46.57
77702;BME280;66868;42.708;23.404;2023-06-04T12:12:34;95577.81;;;28.93;46.04
77702;BME280;66868;42.708;23.404;2023-06-04T12:15:00;95569.03;;;29.01;45.79
77702;BME280;66868;42.708;23.404;2023-06-04T12:17:25;95583.53;;;29.10;44.15
77702;BME280;66868;42.708;23.404;2023-06-04T12:19:51;95591.41;;;29.17;44.24
77702;BME280;66868;42.708;23.404;2023-06-04T12:22:17;95605.69;;;29.27;44.39
77702;BME280;66868;42.708;23.404;2023-06-04T12:24:51;95589.44;;;29.25;45.16
77702;BME280;66868;42.708;23.404;2023-06-04T12:27:18;95583.34;;;29.12;44.63
77702;BME280;66868;42.708;23.404;2023-06-04T12:32:22;95604.13;;;29.33;44.93
77702;BME280;66868;42.708;23.404;2023-06-04T12:34:47;95597.53;;;29.30;44.57
77702;BME280;66868;42.708;23.404;2023-06-04T12:37:13;95606.16;;;29.31;44.51
77702;BME280;66868;42.708;23.404;2023-06-04T12:39:39;95585.19;;;29.18;43.51
77702;BME280;66868;42.708;23.404;2023-06-04T12:42:08;95598.56;;;29.36;43.00
77702;BME280;66868;42.708;23.404;2023-06-04T12:44:35;95588.53;;;29.46;44.66
77702;BME280;66868;42.708;23.404;2023-06-04T12:47:02;95586.00;;;29.66;43.86
77702;BME280;66868;42.708;23.404;2023-06-04T12:49:27;95596.72;;;29.77;43.64
77702;BME280;66868;42.708;23.404;2023-06-04T12:51:52;95592.88;;;29.80;43.16
77702;BME280;66868;42.708;23.404;2023-06-04T12:54:18;95596.44;;;29.66;42.84
77702;BME280;66868;42.708;23.404;2023-06-04T12:56:43;95582.97;;;29.56;43.06